Terminal Aerodrome Forecast
Issued by NWS

Home | Current Version | Previous Version | Text Only | Print | Product List | Glossary On
Versions: 1 2 3 4 5 6 7 8 9 10 11 12 13 14 15
870
FTUS46 KMTR 251122
TAFSNS
TAF
KSNS 251122Z 2512/2612 12004KT P6SM SKC
     FM251700 12008KT P6SM FEW030
     FM252100 28007KT P6SM FEW040
     FM260300 08003KT P6SM VCSH FEW030 BKN120
     FM260600 11005KT P6SM SCT030 BKN120
     FM261000 10003KT P6SM FEW050=

USA.gov is the U.S. government's official web portal to all federal, state and local government web resources and services.